Terminal Aerodrome Forecast
Issued by NWS

Home | Current Version | Previous Version | Graphics & Text | Print | Product List | Glossary On
Versions: 1 2 3 4 5 6 7 8 9 10 11 12 13 14 15 16 17 18 19 20 21 22 23 24
000
FTUS43 KABR 270536
TAFMBG
TAF
KMBG 270536Z 2706/2806 11008KT P6SM BKN200
     FM270900 09008KT P6SM -SHRA OVC070
     FM271600 03014KT P6SM -SHRA OVC025
     FM272200 02015KT P6SM OVC015=

USA.gov is the U.S. government's official web portal to all federal, state and local government web resources and services.